Time;durP1;ratioP1;P1;durP2;ratioP2;P2;SDS_P1;SDS_P2;PMS_P1;PMS_P2;Temp;Humidity;BMP_temperature;BMP_pressure;BME280_temperature;BME280_humidity;BME280_pressure;Samples;Min_cycle;Max_cycle;Signal;HPM_P1;HPM_P2
2023/05/09 00:01:09;;;;;;;;;;;13.30;99.90;;;;;;5130695;27;19921;-70
2023/05/09 00:03:34;;;;;;;;;;;13.40;99.90;;;;;;5131410;27;19919;-70
2023/05/09 00:06:01;;;;;;;;;;;14.00;99.90;;;;;;5136460;27;19915;-70
2023/05/09 00:08:27;;;;;;;;;;;14.00;99.90;;;;;;5146896;27;20346;-70
2023/05/09 00:10:52;;;;;;;;;;;13.50;99.90;;;;;;5131288;27;19971;-70
2023/05/09 00:13:18;;;;;;;;;;;13.40;99.90;;;;;;5139409;27;19927;-70
2023/05/09 00:15:43;;;;;;;;;;;15.10;99.90;;;;;;5138532;27;19968;-70
2023/05/09 00:18:10;;;;;;;;;;;13.40;99.90;;;;;;5150806;27;19915;-70
2023/05/09 00:20:35;;;;;;;;;;;15.10;99.90;;;;;;5145407;27;20029;-70
2023/05/09 00:23:01;;;;;;;;;;;15.10;99.90;;;;;;5135811;27;20029;-70
2023/05/09 00:25:26;;;;;;;;;;;14.80;99.90;;;;;;5132198;27;19915;-70
2023/05/09 00:27:52;;;;;;;;;;;14.40;99.90;;;;;;5144738;27;19992;-70
2023/05/09 00:30:17;;;;;;;;;;;15.00;99.90;;;;;;5131887;27;19919;-70
2023/05/09 00:32:43;;;;;;;;;;;13.40;99.90;;;;;;5114834;27;19919;-70
2023/05/09 00:35:09;;;;;;;;;;;15.00;99.90;;;;;;5147169;27;19923;-70
2023/05/09 00:37:35;;;;;;;;;;;15.00;99.90;;;;;;5150196;27;19926;-70
2023/05/09 00:40:00;;;;;;;;;;;13.60;99.90;;;;;;5148547;27;20454;-70
2023/05/09 00:42:26;;;;;;;;;;;15.20;99.90;;;;;;5141386;27;20105;-70
2023/05/09 00:44:51;;;;;;;;;;;13.60;99.90;;;;;;5143218;27;19919;-70
2023/05/09 00:47:17;;;;;;;;;;;14.30;99.90;;;;;;5142514;27;19919;-70
2023/05/09 00:49:43;;;;;;;;;;;15.00;99.90;;;;;;5145870;27;20255;-70
2023/05/09 00:52:08;;;;;;;;;;;15.10;99.90;;;;;;5132376;27;19930;-70
2023/05/09 00:54:34;;;;;;;;;;;13.50;99.90;;;;;;5131152;27;19945;-70
2023/05/09 00:57:00;;;;;;;;;;;13.80;99.90;;;;;;5135670;27;20269;-70
2023/05/09 00:59:26;;;;;;;;;;;13.40;99.90;;;;;;5126171;27;19920;-70
2023/05/09 01:01:51;;;;;;;;;;;14.90;99.90;;;;;;5142619;27;20027;-70
2023/05/09 01:04:17;;;;;;;;;;;13.80;99.90;;;;;;5131278;27;20014;-70
2023/05/09 01:06:51;;;;;;;;;;;13.90;99.90;;;;;;5119055;27;19919;-70
2023/05/09 01:09:26;;;;;;;;;;;13.90;99.90;;;;;;5138174;27;19918;-70
2023/05/09 01:12:05;;;;;;;;;;;13.50;99.90;;;;;;5134633;27;19918;-70
2023/05/09 01:14:30;;;;;;;;;;;13.50;99.90;;;;;;5146239;27;19926;-70
2023/05/09 01:17:04;;;;;;;;;;;13.50;99.90;;;;;;5138553;27;19919;-70
2023/05/09 01:19:48;;;;;;;;;;;13.70;99.90;;;;;;5149647;27;19970;-70
2023/05/09 01:22:15;;;;;;;;;;;13.70;99.90;;;;;;5138419;27;20066;-70
2023/05/09 01:24:56;;;;;;;;;;;15.00;99.90;;;;;;5130993;27;19915;-70
2023/05/09 01:27:31;;;;;;;;;;;14.80;99.90;;;;;;5142127;27;20016;-70
2023/05/09 01:29:58;;;;;;;;;;;15.10;99.90;;;;;;5126425;27;19920;-70
2023/05/09 01:32:25;;;;;;;;;;;13.70;99.90;;;;;;5138459;27;20063;-70
2023/05/09 01:34:53;;;;;;;;;;;13.60;99.90;;;;;;5148936;27;19915;-70
2023/05/09 01:37:21;;;;;;;;;;;13.60;99.90;;;;;;5137808;27;19915;-70
2023/05/09 01:39:50;;;;;;;;;;;13.50;99.90;;;;;;5131342;27;20273;-70
2023/05/09 01:42:17;;;;;;;;;;;14.70;99.90;;;;;;5145322;27;19915;-70
2023/05/09 01:44:45;;;;;;;;;;;15.00;99.90;;;;;;5136606;27;19954;-70
2023/05/09 01:47:10;;;;;;;;;;;13.70;99.90;;;;;;5143502;27;20383;-70
2023/05/09 01:49:37;;;;;;;;;;;15.00;99.90;;;;;;5127991;27;19919;-70
2023/05/09 01:52:04;;;;;;;;;;;14.70;99.90;;;;;;5127501;27;20425;-70
2023/05/09 01:54:31;;;;;;;;;;;14.20;99.90;;;;;;5130270;27;20018;-70
2023/05/09 01:56:57;;;;;;;;;;;13.80;99.90;;;;;;5142795;27;19915;-70
2023/05/09 01:59:24;;;;;;;;;;;15.00;99.90;;;;;;5144822;27;19922;-70
2023/05/09 02:01:51;;;;;;;;;;;14.20;99.90;;;;;;5141474;27;20005;-70
2023/05/09 02:04:17;;;;;;;;;;;14.70;99.90;;;;;;5134507;27;19922;-70
2023/05/09 02:06:43;;;;;;;;;;;14.20;99.90;;;;;;5143140;27;19920;-70
2023/05/09 02:09:10;;;;;;;;;;;15.10;99.90;;;;;;5143028;27;19959;-69
2023/05/09 02:11:35;;;;;;;;;;;14.70;99.90;;;;;;5145079;27;19922;-70
2023/05/09 02:14:01;;;;;;;;;;;15.00;99.90;;;;;;5144563;27;19919;-70
2023/05/09 02:16:27;;;;;;;;;;;14.60;99.90;;;;;;5147403;27;19915;-70
2023/05/09 02:18:52;;;;;;;;;;;15.10;99.90;;;;;;5126857;27;19984;-70
2023/05/09 02:21:18;;;;;;;;;;;13.50;99.90;;;;;;5118385;27;19985;-70
2023/05/09 02:23:44;;;;;;;;;;;14.00;99.90;;;;;;5133474;27;19927;-70
2023/05/09 02:26:10;;;;;;;;;;;15.00;99.90;;;;;;5139028;27;19915;-70
2023/05/09 02:28:37;;;;;;;;;;;14.90;99.90;;;;;;5145732;27;20268;-70
2023/05/09 02:31:05;;;;;;;;;;;15.10;99.90;;;;;;5153403;27;20005;-70
2023/05/09 02:33:32;;;;;;;;;;;13.60;99.90;;;;;;5123051;27;20338;-70
2023/05/09 02:35:57;;;;;;;;;;;15.00;99.90;;;;;;5148616;27;19937;-70
2023/05/09 02:38:23;;;;;;;;;;;14.80;99.90;;;;;;5141422;27;20246;-70
2023/05/09 02:40:49;;;;;;;;;;;15.10;99.90;;;;;;5135420;27;20422;-70
2023/05/09 02:43:15;;;;;;;;;;;14.20;99.90;;;;;;5116675;27;19950;-70
2023/05/09 02:45:40;;;;;;;;;;;15.00;99.90;;;;;;5149280;27;19982;-70
2023/05/09 02:48:06;;;;;;;;;;;13.70;99.90;;;;;;5132849;27;19919;-70
2023/05/09 02:50:32;;;;;;;;;;;15.10;99.90;;;;;;5146658;27;19919;-70
2023/05/09 02:52:57;;;;;;;;;;;14.60;99.90;;;;;;5152325;27;19930;-70
2023/05/09 02:55:23;;;;;;;;;;;15.10;99.90;;;;;;5134360;27;19919;-70
2023/05/09 02:57:48;;;;;;;;;;;14.70;99.90;;;;;;5143872;27;19923;-70
2023/05/09 03:00:14;;;;;;;;;;;13.70;99.90;;;;;;5135905;27;19980;-70
2023/05/09 03:02:40;;;;;;;;;;;14.90;99.90;;;;;;5136210;27;19923;-70
2023/05/09 03:05:06;;;;;;;;;;;13.50;99.90;;;;;;5126454;27;19963;-70
2023/05/09 03:07:31;;;;;;;;;;;14.70;99.90;;;;;;5135615;27;20370;-70
2023/05/09 03:09:57;;;;;;;;;;;14.90;99.90;;;;;;5134179;27;19931;-70
2023/05/09 03:12:22;;;;;;;;;;;13.90;99.90;;;;;;5116400;27;19930;-70
2023/05/09 03:14:48;;;;;;;;;;;15.00;99.90;;;;;;5133042;27;20271;-70
2023/05/09 03:17:19;;;;;;;;;;;13.70;99.90;;;;;;5137565;27;19915;-70
2023/05/09 03:19:45;;;;;;;;;;;14.90;99.90;;;;;;5148835;27;19915;-70
2023/05/09 03:22:11;;;;;;;;;;;13.90;99.90;;;;;;5151213;27;19960;-70
2023/05/09 03:24:37;;;;;;;;;;;14.90;99.90;;;;;;5140607;27;19954;-70
2023/05/09 03:27:02;;;;;;;;;;;15.00;99.90;;;;;;5144409;27;19923;-70
2023/05/09 03:29:28;;;;;;;;;;;14.70;99.90;;;;;;5143722;27;19918;-70
2023/05/09 03:31:53;;;;;;;;;;;14.80;99.90;;;;;;5150120;27;19922;-70
2023/05/09 03:34:19;;;;;;;;;;;15.10;99.90;;;;;;5127053;27;19920;-70
2023/05/09 03:36:44;;;;;;;;;;;13.60;99.90;;;;;;5142339;27;20009;-70
2023/05/09 03:39:10;;;;;;;;;;;13.60;99.90;;;;;;5147151;27;19977;-70
2023/05/09 03:41:36;;;;;;;;;;;13.60;99.90;;;;;;5136914;27;20395;-70
2023/05/09 03:44:02;;;;;;;;;;;13.90;99.90;;;;;;5135874;27;19923;-70
2023/05/09 03:46:27;;;;;;;;;;;13.60;99.90;;;;;;5144022;27;19925;-70
2023/05/09 03:48:53;;;;;;;;;;;14.90;99.90;;;;;;5142554;27;19922;-70
2023/05/09 03:51:19;;;;;;;;;;;13.80;99.90;;;;;;5138963;27;19927;-70
2023/05/09 03:53:45;;;;;;;;;;;13.70;99.90;;;;;;5115517;27;20363;-70
2023/05/09 03:56:11;;;;;;;;;;;14.60;99.90;;;;;;5145378;27;19915;-70
2023/05/09 03:58:37;;;;;;;;;;;13.80;99.90;;;;;;5132139;27;19987;-70
2023/05/09 04:01:02;;;;;;;;;;;13.50;99.90;;;;;;5132534;27;19922;-70
2023/05/09 04:03:28;;;;;;;;;;;15.00;99.90;;;;;;5111369;27;19979;-70
2023/05/09 04:05:54;;;;;;;;;;;14.70;99.90;;;;;;5133956;27;20404;-70
2023/05/09 04:08:19;;;;;;;;;;;13.80;99.90;;;;;;5139784;27;19925;-70
2023/05/09 04:10:45;;;;;;;;;;;13.50;99.90;;;;;;5142102;27;19919;-70
2023/05/09 04:13:11;;;;;;;;;;;13.90;99.90;;;;;;5125958;27;19923;-69
2023/05/09 04:15:36;;;;;;;;;;;15.20;99.90;;;;;;5128973;27;19931;-69
2023/05/09 04:18:02;;;;;;;;;;;14.80;99.90;;;;;;5129599;27;19915;-72
2023/05/09 04:20:28;;;;;;;;;;;13.90;99.90;;;;;;5112268;27;19954;-74
2023/05/09 04:22:53;;;;;;;;;;;15.10;99.90;;;;;;5133550;27;19972;-70
2023/05/09 04:25:19;;;;;;;;;;;14.10;99.90;;;;;;5121586;27;20025;-72
2023/05/09 04:27:45;;;;;;;;;;;13.80;99.90;;;;;;5130586;27;19971;-70
2023/05/09 04:30:10;;;;;;;;;;;13.90;99.90;;;;;;5129850;27;19970;-70
2023/05/09 04:32:37;;;;;;;;;;;15.40;99.90;;;;;;5129626;27;19966;-70
2023/05/09 04:35:03;;;;;;;;;;;13.70;99.90;;;;;;5113872;27;20014;-70
2023/05/09 04:37:30;;;;;;;;;;;15.20;99.90;;;;;;5131017;27;20006;-70
2023/05/09 04:39:56;;;;;;;;;;;13.80;99.90;;;;;;5118637;27;20386;-70
2023/05/09 04:42:21;;;;;;;;;;;13.80;99.90;;;;;;5131489;27;19915;-70
2023/05/09 04:44:48;;;;;;;;;;;13.90;99.90;;;;;;5131559;27;19981;-70
2023/05/09 04:47:13;;;;;;;;;;;14.50;99.90;;;;;;5131334;27;20247;-70
2023/05/09 04:49:39;;;;;;;;;;;15.30;99.90;;;;;;5114260;27;19915;-69
2023/05/09 04:52:05;;;;;;;;;;;14.10;99.90;;;;;;5131447;27;19923;-70
2023/05/09 04:54:31;;;;;;;;;;;14.20;99.90;;;;;;5123862;27;20326;-70
2023/05/09 04:56:57;;;;;;;;;;;13.90;99.90;;;;;;5130779;27;20697;-70
2023/05/09 04:59:22;;;;;;;;;;;15.60;99.90;;;;;;5128655;27;20002;-69
2023/05/09 05:01:48;;;;;;;;;;;14.00;99.90;;;;;;5129995;27;19919;-69
2023/05/09 05:04:13;;;;;;;;;;;15.60;99.90;;;;;;5113662;27;19934;-70
2023/05/09 05:06:39;;;;;;;;;;;15.60;99.90;;;;;;5140133;27;19919;-71
2023/05/09 05:09:04;;;;;;;;;;;14.30;99.90;;;;;;5129226;27;19968;-73
2023/05/09 05:11:30;;;;;;;;;;;14.90;99.90;;;;;;5126937;27;19919;-74
2023/05/09 05:13:56;;;;;;;;;;;16.00;99.90;;;;;;5136696;27;19923;-70
2023/05/09 05:16:21;;;;;;;;;;;14.40;99.90;;;;;;5129883;27;19927;-69
2023/05/09 05:18:47;;;;;;;;;;;15.40;99.90;;;;;;5113148;27;19915;-70
2023/05/09 05:21:12;;;;;;;;;;;14.70;99.90;;;;;;5140483;27;20310;-69
2023/05/09 05:23:38;;;;;;;;;;;15.60;99.90;;;;;;5131189;27;19927;-70
2023/05/09 05:26:04;;;;;;;;;;;14.30;99.90;;;;;;5137338;27;20364;-69
2023/05/09 05:28:29;;;;;;;;;;;14.20;99.90;;;;;;5151313;27;20262;-69
2023/05/09 05:30:55;;;;;;;;;;;14.70;99.90;;;;;;5146555;27;20012;-69
2023/05/09 05:33:20;;;;;;;;;;;15.60;99.90;;;;;;5137765;27;20039;-70
2023/05/09 05:35:46;;;;;;;;;;;15.60;99.90;;;;;;5131125;27;19936;-70
2023/05/09 05:38:12;;;;;;;;;;;14.60;99.90;;;;;;5128988;27;19915;-70
2023/05/09 05:40:37;;;;;;;;;;;14.60;99.90;;;;;;5135848;27;20055;-70
2023/05/09 05:43:03;;;;;;;;;;;16.00;99.90;;;;;;5136421;27;19932;-70
2023/05/09 05:45:31;;;;;;;;;;;14.90;99.90;;;;;;5129336;27;19968;-70
2023/05/09 05:47:57;;;;;;;;;;;14.80;99.90;;;;;;5124027;27;19923;-70
2023/05/09 05:50:23;;;;;;;;;;;16.20;99.90;;;;;;5121030;27;20401;-70
2023/05/09 05:52:48;;;;;;;;;;;16.20;99.90;;;;;;5149038;27;19983;-70
2023/05/09 05:55:14;;;;;;;;;;;16.10;99.90;;;;;;5150767;27;20239;-70
2023/05/09 05:57:39;;;;;;;;;;;15.30;99.90;;;;;;5148306;27;19918;-70
2023/05/09 06:00:09;;;;;;;;;;;14.40;99.90;;;;;;5149300;27;19923;-70
2023/05/09 06:02:35;;;;;;;;;;;16.30;99.90;;;;;;5145504;27;20331;-70
2023/05/09 06:05:02;;;;;;;;;;;15.40;99.90;;;;;;5112863;27;20009;-70
2023/05/09 06:07:28;;;;;;;;;;;15.30;99.90;;;;;;5136675;27;19983;-70
2023/05/09 06:09:53;;;;;;;;;;;15.90;99.90;;;;;;5130118;28;20731;-70
2023/05/09 06:12:19;;;;;;;;;;;16.40;99.90;;;;;;5131356;27;19916;-70
2023/05/09 06:14:45;;;;;;;;;;;14.80;99.90;;;;;;5148439;27;19976;-70
2023/05/09 06:17:10;;;;;;;;;;;14.70;99.90;;;;;;5139394;27;20035;-70
2023/05/09 06:19:36;;;;;;;;;;;16.60;99.90;;;;;;5152332;27;20267;-70
2023/05/09 06:22:02;;;;;;;;;;;15.20;99.90;;;;;;5148937;27;20107;-70
2023/05/09 06:24:28;;;;;;;;;;;16.20;99.90;;;;;;5151049;27;19966;-69
2023/05/09 06:26:53;;;;;;;;;;;16.40;99.90;;;;;;5124439;27;20760;-76
2023/05/09 06:29:19;;;;;;;;;;;16.40;99.90;;;;;;5087541;28;19919;-69
2023/05/09 06:31:44;;;;;;;;;;;15.30;99.90;;;;;;5132210;27;19922;-69
2023/05/09 06:34:10;;;;;;;;;;;16.60;99.90;;;;;;5116638;28;20023;-69
2023/05/09 06:36:35;;;;;;;;;;;14.90;99.90;;;;;;5128953;27;20401;-70
2023/05/09 06:39:01;;;;;;;;;;;16.40;99.90;;;;;;5129808;27;19915;-69
2023/05/09 06:41:27;;;;;;;;;;;15.20;99.90;;;;;;5112309;28;19915;-69
2023/05/09 06:43:52;;;;;;;;;;;15.10;99.90;;;;;;5130731;27;19919;-69
2023/05/09 06:46:18;;;;;;;;;;;16.40;99.90;;;;;;5129744;27;20386;-69
2023/05/09 06:48:43;;;;;;;;;;;16.30;99.90;;;;;;5145252;27;19919;-69
2023/05/09 06:51:10;;;;;;;;;;;15.10;99.90;;;;;;5150325;27;19919;-69
2023/05/09 06:53:36;;;;;;;;;;;15.40;99.90;;;;;;5134271;27;19972;-69
2023/05/09 06:56:01;;;;;;;;;;;15.00;99.90;;;;;;5144654;27;19919;-69
2023/05/09 06:58:27;;;;;;;;;;;16.50;99.90;;;;;;5151831;27;19929;-69
2023/05/09 07:00:53;;;;;;;;;;;15.20;99.90;;;;;;5140391;27;19919;-69
2023/05/09 07:03:18;;;;;;;;;;;16.50;99.90;;;;;;5119211;27;20011;-69
2023/05/09 07:05:44;;;;;;;;;;;15.10;99.90;;;;;;5109303;27;19919;-69
2023/05/09 07:08:10;;;;;;;;;;;15.00;99.90;;;;;;5120654;27;19923;-69
2023/05/09 07:10:37;;;;;;;;;;;15.20;99.90;;;;;;5120046;27;19930;-69
2023/05/09 07:13:02;;;;;;;;;;;16.10;99.90;;;;;;5102679;27;19927;-69
2023/05/09 07:15:28;;;;;;;;;;;16.50;99.90;;;;;;5114814;27;19927;-69
2023/05/09 07:17:53;;;;;;;;;;;16.40;99.90;;;;;;5119717;27;20018;-70
2023/05/09 07:20:19;;;;;;;;;;;16.60;99.90;;;;;;5137678;27;19930;-70
2023/05/09 07:22:45;;;;;;;;;;;15.90;99.90;;;;;;5132337;27;19919;-72
2023/05/09 07:25:10;;;;;;;;;;;15.60;99.90;;;;;;5132861;27;19923;-70
2023/05/09 07:27:36;;;;;;;;;;;16.00;99.90;;;;;;5115385;27;19915;-70
2023/05/09 07:30:02;;;;;;;;;;;15.10;99.90;;;;;;5132427;27;19916;-70
2023/05/09 07:32:28;;;;;;;;;;;16.60;99.90;;;;;;5132392;27;20406;-70
2023/05/09 07:34:54;;;;;;;;;;;16.70;99.90;;;;;;5115835;27;20054;-70
2023/05/09 07:37:19;;;;;;;;;;;15.20;99.90;;;;;;5132966;27;20251;-69
2023/05/09 07:39:46;;;;;;;;;;;16.70;99.90;;;;;;5115758;27;20369;-70
2023/05/09 07:42:12;;;;;;;;;;;16.50;99.90;;;;;;5134085;27;19933;-70
2023/05/09 07:44:37;;;;;;;;;;;15.70;99.90;;;;;;5133140;27;19919;-70
2023/05/09 07:47:04;;;;;;;;;;;16.70;99.90;;;;;;5132917;27;19959;-70
2023/05/09 07:49:30;;;;;;;;;;;15.60;99.90;;;;;;5132646;27;19998;-70
2023/05/09 07:51:56;;;;;;;;;;;16.50;99.90;;;;;;5132318;27;19926;-70
2023/05/09 07:54:21;;;;;;;;;;;16.60;99.90;;;;;;5132262;27;19919;-70
2023/05/09 07:56:47;;;;;;;;;;;16.80;99.90;;;;;;5132489;27;19931;-70
2023/05/09 07:59:12;;;;;;;;;;;16.40;99.90;;;;;;5132111;27;20252;-70
2023/05/09 08:01:39;;;;;;;;;;;17.00;99.90;;;;;;5114987;27;19927;-69
2023/05/09 08:04:05;;;;;;;;;;;16.60;99.90;;;;;;5132247;27;19919;-70
2023/05/09 08:06:31;;;;;;;;;;;16.30;99.90;;;;;;5132175;27;19922;-69
2023/05/09 08:08:57;;;;;;;;;;;16.90;99.90;;;;;;5132459;27;20311;-70
2023/05/09 08:11:22;;;;;;;;;;;16.80;99.90;;;;;;5131789;27;19930;-70
2023/05/09 08:13:49;;;;;;;;;;;16.70;99.90;;;;;;5131788;27;20020;-69
2023/05/09 08:16:16;;;;;;;;;;;16.00;99.90;;;;;;5132160;27;19966;-70
2023/05/09 08:18:42;;;;;;;;;;;15.80;99.90;;;;;;5114889;27;19919;-69
2023/05/09 08:21:07;;;;;;;;;;;15.90;99.90;;;;;;5131707;27;19926;-70
2023/05/09 08:23:33;;;;;;;;;;;16.60;99.90;;;;;;5131818;27;19927;-70
2023/05/09 08:25:59;;;;;;;;;;;16.10;99.90;;;;;;5131671;27;19985;-70
2023/05/09 08:28:27;;;;;;;;;;;16.40;99.90;;;;;;5131775;27;20010;-70
2023/05/09 08:30:53;;;;;;;;;;;16.70;99.90;;;;;;5131456;27;19927;-70
2023/05/09 08:33:19;;;;;;;;;;;16.40;99.90;;;;;;5131388;27;19923;-70
2023/05/09 08:35:49;;;;;;;;;;;16.50;99.90;;;;;;5131696;27;19983;-70
2023/05/09 08:38:14;;;;;;;;;;;16.10;99.90;;;;;;5131407;27;20355;-70
2023/05/09 08:40:40;;;;;;;;;;;16.10;99.90;;;;;;5131331;27;19919;-70
2023/05/09 08:43:06;;;;;;;;;;;16.40;99.90;;;;;;5131486;27;19919;-70
2023/05/09 08:45:33;;;;;;;;;;;16.70;99.90;;;;;;5131217;27;19915;-70
2023/05/09 08:48:01;;;;;;;;;;;16.70;99.90;;;;;;5131582;27;19983;-70
2023/05/09 08:50:27;;;;;;;;;;;16.20;99.90;;;;;;5131003;27;19919;-70
2023/05/09 08:52:53;;;;;;;;;;;16.90;99.90;;;;;;5131330;27;19923;-70
2023/05/09 08:55:18;;;;;;;;;;;16.40;99.90;;;;;;5131008;27;19930;-70
2023/05/09 08:57:44;;;;;;;;;;;16.30;99.90;;;;;;5131173;27;19915;-70
2023/05/09 09:00:12;;;;;;;;;;;16.40;99.90;;;;;;5130894;27;19935;-71
2023/05/09 09:02:41;;;;;;;;;;;16.80;99.90;;;;;;5131308;27;20043;-70
2023/05/09 09:05:07;;;;;;;;;;;16.70;99.90;;;;;;5130931;27;20018;-70
2023/05/09 09:07:33;;;;;;;;;;;16.70;99.90;;;;;;5114011;27;20068;-70
2023/05/09 09:09:59;;;;;;;;;;;16.80;99.90;;;;;;5130961;27;19926;-71
2023/05/09 09:12:25;;;;;;;;;;;16.90;99.90;;;;;;5131057;27;20319;-70
2023/05/09 09:14:54;;;;;;;;;;;16.90;99.90;;;;;;5130466;27;19916;-71
2023/05/09 09:17:23;;;;;;;;;;;17.20;99.90;;;;;;5130545;27;20294;-71
2023/05/09 09:19:53;;;;;;;;;;;16.90;99.90;;;;;;5126940;27;19966;-72
2023/05/09 09:22:19;;;;;;;;;;;17.10;99.90;;;;;;5124027;27;19926;-71
2023/05/09 09:24:45;;;;;;;;;;;17.00;99.90;;;;;;5113159;27;19915;-71
2023/05/09 09:27:10;;;;;;;;;;;17.30;99.90;;;;;;5116057;27;20006;-70
2023/05/09 09:29:37;;;;;;;;;;;17.20;99.90;;;;;;5109639;28;19931;-70
2023/05/09 09:32:04;;;;;;;;;;;17.40;99.90;;;;;;5109833;28;19999;-70
2023/05/09 09:34:30;;;;;;;;;;;17.40;99.90;;;;;;5109888;28;19931;-70
2023/05/09 09:36:55;;;;;;;;;;;17.30;99.90;;;;;;5118022;27;20312;-71
2023/05/09 09:39:21;;;;;;;;;;;17.40;99.90;;;;;;5119174;27;19915;-70
2023/05/09 09:41:47;;;;;;;;;;;17.50;99.90;;;;;;5127071;27;19922;-70
2023/05/09 09:44:14;;;;;;;;;;;17.20;99.90;;;;;;5112790;28;19923;-71
2023/05/09 09:46:46;;;;;;;;;;;17.50;99.90;;;;;;5118477;27;19919;-70
2023/05/09 09:49:12;;;;;;;;;;;17.50;99.90;;;;;;5111975;27;20423;-70
2023/05/09 09:51:38;;;;;;;;;;;17.40;99.90;;;;;;5109698;28;19919;-70
2023/05/09 09:54:06;;;;;;;;;;;17.10;99.90;;;;;;5109999;28;19988;-70
2023/05/09 09:56:41;;;;;;;;;;;17.30;99.90;;;;;;5109510;28;19955;-71
2023/05/09 09:59:11;;;;;;;;;;;17.20;99.90;;;;;;5092578;28;19942;-70
2023/05/09 10:01:53;;;;;;;;;;;17.30;99.90;;;;;;5109737;28;20301;-70
2023/05/09 10:04:19;;;;;;;;;;;17.30;99.90;;;;;;5109840;28;19975;-70
2023/05/09 10:06:52;;;;;;;;;;;17.50;99.90;;;;;;5110008;28;19920;-70
2023/05/09 10:09:17;;;;;;;;;;;17.50;99.90;;;;;;5092969;28;20284;-70
2023/05/09 10:11:43;;;;;;;;;;;17.50;99.90;;;;;;5109889;28;19987;-70
2023/05/09 10:14:09;;;;;;;;;;;17.50;99.90;;;;;;5109448;28;19927;-70
2023/05/09 10:16:36;;;;;;;;;;;17.70;99.90;;;;;;5109456;28;19968;-70
2023/05/09 10:19:01;;;;;;;;;;;17.90;99.90;;;;;;5109794;28;20389;-70
2023/05/09 10:21:27;;;;;;;;;;;18.00;99.90;;;;;;5092756;28;19916;-70
2023/05/09 10:23:53;;;;;;;;;;;18.20;99.90;;;;;;5109821;28;20359;-70
2023/05/09 10:26:27;;;;;;;;;;;18.20;99.90;;;;;;5109509;28;20409;-70
2023/05/09 10:28:56;;;;;;;;;;;18.40;99.90;;;;;;5112929;28;19923;-70
2023/05/09 10:31:26;;;;;;;;;;;18.40;99.90;;;;;;5113298;28;19920;-70
2023/05/09 10:33:52;;;;;;;;;;;18.60;99.90;;;;;;5096391;28;20487;-70
2023/05/09 10:36:27;;;;;;;;;;;18.60;99.90;;;;;;5126255;27;20006;-70
2023/05/09 10:38:53;;;;;;;;;;;18.60;99.90;;;;;;5134275;27;19926;-70
2023/05/09 10:41:20;;;;;;;;;;;18.80;99.90;;;;;;5133567;27;19970;-71
2023/05/09 10:43:46;;;;;;;;;;;18.80;99.90;;;;;;5134063;27;20009;-70
2023/05/09 10:46:12;;;;;;;;;;;18.80;99.90;;;;;;5116887;27;20473;-70
2023/05/09 10:48:38;;;;;;;;;;;18.80;99.90;;;;;;5133717;27;20503;-70
2023/05/09 10:51:04;;;;;;;;;;;18.80;99.90;;;;;;5133489;27;20282;-70
2023/05/09 10:53:43;;;;;;;;;;;18.80;99.90;;;;;;5133694;27;19941;-71
2023/05/09 10:56:20;;;;;;;;;;;18.70;99.90;;;;;;5133310;27;19919;-70
2023/05/09 10:58:46;;;;;;;;;;;18.70;99.90;;;;;;5133254;27;19920;-71
2023/05/09 11:01:12;;;;;;;;;;;18.80;99.90;;;;;;5116163;27;19922;-70
2023/05/09 11:04:04;;;;;;;;;;;18.90;99.90;;;;;;5133639;27;19942;-70
2023/05/09 11:06:38;;;;;;;;;;;18.90;99.90;;;;;;5129997;27;20030;-70
2023/05/09 11:09:31;;;;;;;;;;;18.70;99.90;;;;;;5133340;27;20386;-70
2023/05/09 11:12:00;;;;;;;;;;;18.90;99.90;;;;;;5133101;27;19919;-71
2023/05/09 11:14:37;;;;;;;;;;;18.80;99.90;;;;;;5133131;27;20436;-70
2023/05/09 11:17:03;;;;;;;;;;;18.80;99.90;;;;;;5133046;27;19919;-71
2023/05/09 11:19:52;;;;;;;;;;;18.80;99.90;;;;;;5116178;27;19931;-71
2023/05/09 11:22:25;;;;;;;;;;;18.80;99.90;;;;;;5130488;27;19974;-70
2023/05/09 11:24:52;;;;;;;;;;;18.90;99.90;;;;;;5131506;27;19983;-70
2023/05/09 11:27:19;;;;;;;;;;;19.00;99.90;;;;;;5131409;27;19919;-70
2023/05/09 11:29:48;;;;;;;;;;;19.00;99.90;;;;;;5133169;27;19915;-70
2023/05/09 11:32:14;;;;;;;;;;;19.00;99.90;;;;;;5132248;27;19923;-71
2023/05/09 11:34:44;;;;;;;;;;;19.10;99.90;;;;;;5134090;27;19966;-71
2023/05/09 11:37:11;;;;;;;;;;;19.10;99.90;;;;;;5132488;27;19923;-71
2023/05/09 11:39:57;;;;;;;;;;;19.20;99.90;;;;;;5115011;27;19919;-71
2023/05/09 11:42:23;;;;;;;;;;;19.10;99.90;;;;;;5132569;27;19919;-71
2023/05/09 11:44:50;;;;;;;;;;;19.10;99.90;;;;;;5132784;27;20005;-70
2023/05/09 11:47:15;;;;;;;;;;;19.10;99.90;;;;;;5132388;27;19919;-70
2023/05/09 11:49:44;;;;;;;;;;;19.20;99.90;;;;;;5132521;27;19915;-71
2023/05/09 11:52:10;;;;;;;;;;;19.30;99.90;;;;;;5132287;27;19915;-70
2023/05/09 11:54:39;;;;;;;;;;;19.40;99.90;;;;;;5132142;27;20348;-71
2023/05/09 11:57:04;;;;;;;;;;;19.30;99.90;;;;;;5132200;27;19920;-70
2023/05/09 11:59:31;;;;;;;;;;;19.10;99.90;;;;;;5132265;27;19930;-70
2023/05/09 12:02:01;;;;;;;;;;;19.00;99.90;;;;;;5132274;27;20371;-70
2023/05/09 12:04:27;;;;;;;;;;;18.90;99.90;;;;;;5132294;27;20027;-70
2023/05/09 12:06:53;;;;;;;;;;;18.80;99.90;;;;;;5131802;27;19919;-70
2023/05/09 12:09:19;;;;;;;;;;;18.70;99.90;;;;;;5115039;27;19934;-70
2023/05/09 12:11:48;;;;;;;;;;;18.80;99.90;;;;;;5114890;27;19919;-70
2023/05/09 12:14:27;;;;;;;;;;;18.80;99.90;;;;;;5132019;27;19934;-70
2023/05/09 12:16:53;;;;;;;;;;;18.90;99.90;;;;;;5131794;27;19919;-70
2023/05/09 12:19:19;;;;;;;;;;;19.20;99.90;;;;;;5115132;27;19919;-70
2023/05/09 12:21:45;;;;;;;;;;;19.30;99.90;;;;;;5131728;27;19916;-71
2023/05/09 12:24:10;;;;;;;;;;;19.40;99.90;;;;;;5131705;27;19923;-71
2023/05/09 12:26:36;;;;;;;;;;;19.40;99.90;;;;;;5131737;27;20010;-70
2023/05/09 12:29:02;;;;;;;;;;;19.40;99.90;;;;;;5131673;27;19926;-70
2023/05/09 12:31:28;;;;;;;;;;;19.60;99.90;;;;;;5131454;27;19962;-71
2023/05/09 12:33:53;;;;;;;;;;;19.60;99.90;;;;;;5131608;27;19999;-71
2023/05/09 12:36:19;;;;;;;;;;;19.50;99.90;;;;;;5131707;27;20383;-71
2023/05/09 12:38:54;;;;;;;;;;;19.50;99.90;;;;;;5132916;27;19919;-70
2023/05/09 12:41:21;;;;;;;;;;;19.50;99.90;;;;;;5131287;27;19919;-70
2023/05/09 12:43:48;;;;;;;;;;;19.60;99.90;;;;;;5131675;27;20022;-70
2023/05/09 12:46:20;;;;;;;;;;;19.70;99.90;;;;;;5131423;27;19924;-71
2023/05/09 12:48:47;;;;;;;;;;;19.70;99.90;;;;;;5131333;27;19915;-71
2023/05/09 12:51:16;;;;;;;;;;;19.60;99.90;;;;;;5130905;27;19923;-70
2023/05/09 12:53:42;;;;;;;;;;;19.60;99.90;;;;;;5131241;27;19941;-70
2023/05/09 12:56:13;;;;;;;;;;;19.70;99.90;;;;;;5131196;27;19934;-71
2023/05/09 12:58:38;;;;;;;;;;;19.70;99.90;;;;;;5131128;27;19919;-70
2023/05/09 13:01:04;;;;;;;;;;;19.60;99.90;;;;;;5132262;27;19991;-71
2023/05/09 13:03:36;;;;;;;;;;;19.70;99.90;;;;;;5130863;27;19966;-70
2023/05/09 13:06:11;;;;;;;;;;;19.70;99.90;;;;;;5131007;27;19968;-70
2023/05/09 13:08:37;;;;;;;;;;;19.70;99.90;;;;;;5132708;27;19915;-70
2023/05/09 13:11:04;;;;;;;;;;;19.70;99.90;;;;;;5130838;27;20026;-70
2023/05/09 13:13:29;;;;;;;;;;;19.70;99.90;;;;;;5131045;27;20002;-70
2023/05/09 13:15:56;;;;;;;;;;;19.60;99.90;;;;;;5131021;27;20051;-71
2023/05/09 13:18:23;;;;;;;;;;;19.60;99.90;;;;;;5131140;27;19922;-70
2023/05/09 13:20:51;;;;;;;;;;;19.60;99.90;;;;;;5130776;27;19919;-70
2023/05/09 13:23:17;;;;;;;;;;;19.50;99.90;;;;;;5130646;27;19917;-70
2023/05/09 13:25:43;;;;;;;;;;;19.50;99.90;;;;;;5130934;27;19926;-70
2023/05/09 13:28:08;;;;;;;;;;;19.40;99.90;;;;;;5130556;27;20382;-70
2023/05/09 13:30:34;;;;;;;;;;;19.30;99.90;;;;;;5130475;27;19949;-70
2023/05/09 13:33:00;;;;;;;;;;;19.30;99.90;;;;;;5113382;28;19931;-70
2023/05/09 13:35:26;;;;;;;;;;;19.20;99.90;;;;;;5130416;27;19915;-70
2023/05/09 13:37:51;;;;;;;;;;;19.20;99.90;;;;;;5096602;27;19915;-70
2023/05/09 13:40:17;;;;;;;;;;;19.10;99.90;;;;;;5130594;27;19919;-70
2023/05/09 13:42:43;;;;;;;;;;;18.90;99.90;;;;;;5112985;27;19919;-70
2023/05/09 13:45:09;;;;;;;;;;;18.70;99.90;;;;;;5130482;27;19923;-70
2023/05/09 13:47:35;;;;;;;;;;;18.50;99.90;;;;;;5130458;27;19975;-70
2023/05/09 13:50:01;;;;;;;;;;;18.30;99.90;;;;;;5130364;28;19954;-70
2023/05/09 13:52:27;;;;;;;;;;;18.00;99.90;;;;;;5130342;28;19958;-70
2023/05/09 13:54:52;;;;;;;;;;;17.90;99.90;;;;;;5130321;27;19919;-70
2023/05/09 13:57:18;;;;;;;;;;;17.80;99.90;;;;;;5113409;28;19922;-70
2023/05/09 13:59:43;;;;;;;;;;;17.70;99.90;;;;;;5130227;28;20390;-70
2023/05/09 14:02:12;;;;;;;;;;;17.60;99.90;;;;;;5115563;27;19972;-70
2023/05/09 14:04:38;;;;;;;;;;;17.60;99.90;;;;;;5131732;27;19926;-70
2023/05/09 14:07:03;;;;;;;;;;;17.50;99.90;;;;;;5129011;27;19919;-71
2023/05/09 14:09:29;;;;;;;;;;;17.50;99.90;;;;;;5131935;27;20377;-70
2023/05/09 14:11:55;;;;;;;;;;;17.60;99.90;;;;;;5117383;27;19916;-71
2023/05/09 14:14:22;;;;;;;;;;;17.50;99.90;;;;;;5131390;27;19923;-70